createdAt,value
2023-05-09T00:01:45.404Z,15.50
2023-05-09T00:04:12.406Z,15.50
2023-05-09T00:06:39.158Z,15.40
2023-05-09T00:09:06.006Z,15.40
2023-05-09T00:11:32.794Z,15.40
2023-05-09T00:13:59.604Z,15.40
2023-05-09T00:16:26.466Z,15.40
2023-05-09T00:18:53.356Z,15.40
2023-05-09T00:21:20.130Z,15.40
2023-05-09T00:23:47.737Z,15.40
2023-05-09T00:26:14.488Z,15.30
2023-05-09T00:28:41.232Z,15.30
2023-05-09T00:31:08.012Z,15.30
2023-05-09T00:33:34.799Z,15.20
2023-05-09T00:36:01.623Z,15.20
2023-05-09T00:38:28.412Z,15.20
2023-05-09T00:40:55.329Z,15.20
2023-05-09T00:43:22.221Z,15.20
2023-05-09T00:45:49.492Z,15.10
2023-05-09T00:48:16.675Z,15.10
2023-05-09T00:50:43.966Z,15.10
2023-05-09T00:53:10.928Z,15.10
2023-05-09T00:55:37.762Z,15.10
2023-05-09T00:58:04.517Z,15.00
2023-05-09T01:00:31.460Z,15.00
2023-05-09T01:02:58.535Z,15.10
2023-05-09T01:05:29.821Z,15.00
2023-05-09T01:08:07.920Z,15.00
2023-05-09T01:10:40.847Z,15.00
2023-05-09T01:13:25.143Z,15.00
2023-05-09T01:15:57.329Z,14.90
2023-05-09T01:18:34.603Z,14.90
2023-05-09T01:21:08.799Z,14.90
2023-05-09T01:23:44.744Z,14.90
2023-05-09T01:26:33.536Z,14.90
2023-05-09T01:29:38.605Z,14.90
2023-05-09T01:32:11.188Z,14.90
2023-05-09T01:34:40.317Z,14.80
2023-05-09T01:37:07.301Z,14.90
2023-05-09T01:39:37.984Z,14.80
2023-05-09T01:42:07.595Z,14.80
2023-05-09T01:44:38.124Z,14.70
2023-05-09T01:47:07.717Z,14.70
2023-05-09T01:49:36.187Z,14.70
2023-05-09T01:52:06.005Z,14.70
2023-05-09T01:54:33.595Z,14.70
2023-05-09T01:57:01.208Z,14.70
2023-05-09T01:59:28.857Z,14.70
2023-05-09T02:01:56.399Z,14.70
2023-05-09T02:04:23.810Z,14.70
2023-05-09T02:06:51.406Z,14.70
2023-05-09T02:09:19.378Z,14.70
2023-05-09T02:11:46.923Z,14.60
2023-05-09T02:14:14.107Z,14.60
2023-05-09T02:16:40.952Z,14.60
2023-05-09T02:19:07.876Z,14.60
2023-05-09T02:21:34.653Z,14.60
2023-05-09T02:24:01.511Z,14.60
2023-05-09T02:26:28.979Z,14.60
2023-05-09T02:28:55.992Z,14.60
2023-05-09T02:31:24.241Z,14.50
2023-05-09T02:33:52.723Z,14.60
2023-05-09T02:36:19.904Z,14.50
2023-05-09T02:38:46.964Z,14.50
2023-05-09T02:41:17.242Z,14.50
2023-05-09T02:43:44.010Z,14.50
2023-05-09T02:46:10.955Z,14.50
2023-05-09T02:48:37.867Z,14.40
2023-05-09T02:51:04.818Z,14.40
2023-05-09T02:53:31.618Z,14.40
2023-05-09T02:55:58.697Z,14.40
2023-05-09T02:58:25.516Z,14.40
2023-05-09T03:00:52.287Z,14.40
2023-05-09T03:03:19.269Z,14.40
2023-05-09T03:05:46.389Z,14.40
2023-05-09T03:08:13.158Z,14.40
2023-05-09T03:10:39.968Z,14.40
2023-05-09T03:13:06.841Z,14.40
2023-05-09T03:15:33.740Z,14.40
2023-05-09T03:18:00.520Z,14.40
2023-05-09T03:20:27.781Z,14.40
2023-05-09T03:22:54.598Z,14.40
2023-05-09T03:25:22.321Z,14.30
2023-05-09T03:27:49.208Z,14.40
2023-05-09T03:30:16.039Z,14.40
2023-05-09T03:32:42.983Z,14.40
2023-05-09T03:35:09.822Z,14.30
2023-05-09T03:37:36.608Z,14.30
2023-05-09T03:40:04.008Z,14.30
2023-05-09T03:42:31.017Z,14.30
2023-05-09T03:44:58.092Z,14.30
2023-05-09T03:47:24.863Z,14.30
2023-05-09T03:49:53.469Z,14.30
2023-05-09T03:52:20.291Z,14.30
2023-05-09T03:54:47.050Z,14.30
2023-05-09T03:57:13.806Z,14.30
2023-05-09T03:59:40.651Z,14.30
2023-05-09T04:02:07.555Z,14.30
2023-05-09T04:04:34.367Z,14.30
2023-05-09T04:07:01.119Z,14.30
2023-05-09T04:09:28.864Z,14.30
2023-05-09T04:11:55.636Z,14.30
2023-05-09T04:14:22.406Z,14.20
2023-05-09T04:16:49.209Z,14.30
2023-05-09T04:19:16.597Z,14.20
2023-05-09T04:21:43.326Z,14.20
2023-05-09T04:24:10.066Z,14.20
2023-05-09T04:26:38.506Z,14.20
2023-05-09T04:29:05.488Z,14.20
2023-05-09T04:31:32.717Z,14.20
2023-05-09T04:33:59.628Z,14.20
2023-05-09T04:36:27.623Z,14.20
2023-05-09T04:38:54.464Z,14.20
2023-05-09T04:41:21.507Z,14.20
2023-05-09T04:43:48.362Z,14.20
2023-05-09T04:46:15.120Z,14.20
2023-05-09T04:48:41.884Z,14.20
2023-05-09T04:51:08.673Z,14.20
2023-05-09T04:53:35.561Z,14.20
2023-05-09T04:56:02.617Z,14.20
2023-05-09T04:58:29.361Z,14.20
2023-05-09T05:00:56.260Z,14.20
2023-05-09T05:03:23.078Z,14.20
2023-05-09T05:05:49.874Z,14.20
2023-05-09T05:08:16.668Z,14.20
2023-05-09T05:10:43.416Z,14.20
2023-05-09T05:13:10.415Z,14.20
2023-05-09T05:15:37.199Z,14.20
2023-05-09T05:18:04.123Z,14.20
2023-05-09T05:20:30.970Z,14.10
2023-05-09T05:22:58.422Z,14.20
2023-05-09T05:25:26.136Z,14.20
2023-05-09T05:27:52.956Z,14.20
2023-05-09T05:30:20.983Z,14.20
2023-05-09T05:32:47.872Z,14.20
2023-05-09T05:35:15.101Z,14.20
2023-05-09T05:37:42.404Z,14.20
2023-05-09T05:40:09.801Z,14.20
2023-05-09T05:42:36.887Z,14.20
2023-05-09T05:45:06.828Z,14.20
2023-05-09T05:47:34.673Z,14.20
2023-05-09T05:50:02.489Z,14.20
2023-05-09T05:52:29.393Z,14.20
2023-05-09T05:54:56.235Z,14.20
2023-05-09T05:57:23.007Z,14.20
2023-05-09T05:59:52.763Z,14.20
2023-05-09T06:02:19.528Z,14.20
2023-05-09T06:04:46.332Z,14.20
2023-05-09T06:07:14.057Z,14.20
2023-05-09T06:09:40.866Z,14.20
2023-05-09T06:12:07.717Z,14.30
2023-05-09T06:14:34.525Z,14.20
2023-05-09T06:17:01.375Z,14.30
2023-05-09T06:19:28.221Z,14.30
2023-05-09T06:21:55.093Z,14.30
2023-05-09T06:24:34.579Z,14.30
2023-05-09T06:27:02.395Z,14.30
2023-05-09T06:29:29.178Z,14.40
2023-05-09T06:31:56.029Z,14.40
2023-05-09T06:34:22.826Z,14.40
2023-05-09T06:36:49.667Z,14.40
2023-05-09T06:39:16.529Z,14.30
2023-05-09T06:41:43.253Z,14.40
2023-05-09T06:44:10.018Z,14.40
2023-05-09T06:46:36.846Z,14.40
2023-05-09T06:49:03.586Z,14.40
2023-05-09T06:51:31.118Z,14.40
2023-05-09T06:53:58.229Z,14.50
2023-05-09T06:56:26.946Z,14.50
2023-05-09T06:58:53.893Z,14.50
2023-05-09T07:01:20.737Z,14.50
2023-05-09T07:03:47.594Z,14.40
2023-05-09T07:06:14.671Z,14.50
2023-05-09T07:08:41.501Z,14.50
2023-05-09T07:11:08.251Z,14.50
2023-05-09T07:13:34.983Z,14.50
2023-05-09T07:16:01.755Z,14.50
2023-05-09T07:18:28.492Z,14.50
2023-05-09T07:20:55.535Z,14.60
2023-05-09T07:23:22.397Z,14.60
2023-05-09T07:25:49.263Z,14.60
2023-05-09T07:28:16.042Z,14.60
2023-05-09T07:30:43.766Z,14.60
2023-05-09T07:33:10.637Z,14.60
2023-05-09T07:35:37.418Z,14.70
2023-05-09T07:38:06.358Z,14.70
2023-05-09T07:40:37.139Z,14.70
2023-05-09T07:43:04.120Z,14.70
2023-05-09T07:45:30.878Z,14.70
2023-05-09T07:47:57.741Z,14.80
2023-05-09T07:50:24.622Z,14.80
2023-05-09T07:52:52.672Z,14.80
2023-05-09T07:55:19.500Z,14.90
2023-05-09T07:57:46.683Z,14.80
2023-05-09T08:00:15.045Z,14.80
2023-05-09T08:02:41.997Z,14.90
2023-05-09T08:05:11.531Z,14.90
2023-05-09T08:07:38.686Z,14.90
2023-05-09T08:10:06.348Z,14.90
2023-05-09T08:12:33.202Z,14.90
2023-05-09T08:14:59.941Z,14.90
2023-05-09T08:17:26.720Z,14.90
2023-05-09T08:19:53.512Z,15.00
2023-05-09T08:22:20.442Z,14.90
2023-05-09T08:24:47.791Z,15.00
2023-05-09T08:27:15.512Z,15.00
2023-05-09T08:29:43.163Z,15.00
2023-05-09T08:32:10.085Z,15.00
2023-05-09T08:34:36.928Z,15.00
2023-05-09T08:37:04.389Z,15.10
2023-05-09T08:39:31.802Z,15.10
2023-05-09T08:41:59.669Z,15.00
2023-05-09T08:44:27.970Z,15.10
2023-05-09T08:47:04.954Z,15.10
2023-05-09T08:49:31.890Z,15.00
2023-05-09T08:51:58.827Z,15.10
2023-05-09T08:54:25.795Z,15.10
2023-05-09T08:56:52.672Z,15.10
2023-05-09T08:59:19.698Z,15.10
2023-05-09T09:01:46.607Z,15.10
2023-05-09T09:04:13.468Z,15.10
2023-05-09T09:06:40.616Z,15.10
2023-05-09T09:09:08.960Z,15.10
2023-05-09T09:11:36.944Z,15.10
2023-05-09T09:14:16.634Z,15.10
2023-05-09T09:16:44.776Z,15.10
2023-05-09T09:19:13.400Z,15.10
2023-05-09T09:21:42.496Z,15.10
2023-05-09T09:24:13.104Z,15.10
2023-05-09T09:26:48.337Z,15.10
2023-05-09T09:29:15.611Z,15.10
2023-05-09T09:31:46.343Z,15.10
2023-05-09T09:34:14.586Z,15.10
2023-05-09T09:36:41.428Z,15.10
2023-05-09T09:39:09.206Z,15.10
2023-05-09T09:41:38.034Z,15.10
2023-05-09T09:44:08.436Z,15.10
2023-05-09T09:46:50.204Z,15.00
2023-05-09T09:49:20.834Z,15.00
2023-05-09T09:51:54.675Z,15.00
2023-05-09T09:54:22.012Z,15.00
2023-05-09T09:56:50.799Z,15.00
2023-05-09T09:59:19.905Z,15.00
2023-05-09T10:01:54.998Z,15.00
2023-05-09T10:04:21.880Z,15.10
2023-05-09T10:07:12.763Z,15.10
2023-05-09T10:09:41.394Z,15.10
2023-05-09T10:12:08.791Z,15.10
2023-05-09T10:14:36.826Z,15.10
2023-05-09T10:17:05.294Z,15.20
2023-05-09T10:19:33.004Z,15.10
2023-05-09T10:22:05.744Z,15.10
2023-05-09T10:24:40.562Z,15.20
2023-05-09T10:27:10.420Z,15.20
2023-05-09T10:29:45.090Z,15.10
2023-05-09T10:32:22.691Z,15.10
2023-05-09T10:34:53.658Z,15.10
2023-05-09T10:37:21.547Z,15.20
2023-05-09T10:39:53.139Z,15.20
2023-05-09T10:42:20.627Z,15.10
2023-05-09T10:44:48.114Z,15.20
2023-05-09T10:47:15.605Z,15.20
2023-05-09T10:49:43.655Z,15.20
2023-05-09T10:52:10.585Z,15.20
2023-05-09T10:54:37.459Z,15.20
2023-05-09T10:57:09.338Z,15.20
2023-05-09T10:59:38.534Z,15.20
2023-05-09T11:02:06.732Z,15.20
2023-05-09T11:04:33.567Z,15.20
2023-05-09T11:07:00.825Z,15.20
2023-05-09T11:09:35.436Z,15.10
2023-05-09T11:12:05.402Z,15.10
2023-05-09T11:14:38.135Z,15.10
2023-05-09T11:17:06.998Z,15.10
2023-05-09T11:19:36.921Z,15.10
2023-05-09T11:22:15.178Z,14.90
2023-05-09T11:24:49.691Z,14.90
2023-05-09T11:27:22.933Z,15.00
2023-05-09T11:29:54.480Z,15.00
2023-05-09T11:32:22.207Z,14.90
2023-05-09T11:34:49.765Z,14.80
2023-05-09T11:37:18.099Z,14.90
2023-05-09T11:40:03.132Z,15.00
2023-05-09T11:42:30.649Z,15.00
2023-05-09T11:44:58.390Z,14.90
2023-05-09T11:47:29.586Z,15.00
2023-05-09T11:49:56.565Z,14.90
2023-05-09T11:52:23.940Z,14.90
2023-05-09T11:54:50.796Z,15.00
2023-05-09T11:57:17.954Z,14.90
2023-05-09T11:59:45.522Z,14.90
2023-05-09T12:02:13.261Z,14.90
2023-05-09T12:04:40.117Z,14.80
2023-05-09T12:07:07.047Z,14.80
2023-05-09T12:09:38.046Z,14.80
2023-05-09T12:12:12.146Z,14.80
2023-05-09T12:14:39.699Z,14.80
2023-05-09T12:17:07.970Z,14.90
2023-05-09T12:19:34.928Z,14.90
2023-05-09T12:22:03.764Z,14.90
2023-05-09T12:24:31.425Z,14.90
2023-05-09T12:26:59.447Z,14.90
2023-05-09T12:29:27.114Z,14.90
2023-05-09T12:31:54.609Z,14.90
2023-05-09T12:34:21.529Z,14.90
2023-05-09T12:36:50.868Z,14.90
2023-05-09T12:39:19.437Z,14.90
2023-05-09T12:41:57.331Z,14.80
2023-05-09T12:44:26.001Z,14.80
2023-05-09T12:47:01.430Z,14.80
2023-05-09T12:49:28.947Z,14.70
2023-05-09T12:51:57.225Z,14.80
2023-05-09T12:54:25.766Z,14.80
2023-05-09T12:56:56.153Z,14.60
2023-05-09T12:59:24.392Z,14.70
2023-05-09T13:01:58.851Z,14.70
2023-05-09T13:04:27.680Z,14.70
2023-05-09T13:06:57.589Z,14.60
2023-05-09T13:09:26.208Z,14.60
2023-05-09T13:11:53.531Z,14.60
2023-05-09T13:14:21.912Z,14.60
2023-05-09T13:16:48.914Z,14.60
2023-05-09T13:19:16.334Z,14.70
2023-05-09T13:21:43.167Z,14.60
2023-05-09T13:24:09.963Z,14.60
2023-05-09T13:26:36.812Z,14.60
2023-05-09T13:29:03.723Z,14.60
2023-05-09T13:31:31.194Z,14.60
2023-05-09T13:33:58.040Z,14.60
2023-05-09T13:36:24.888Z,14.60
2023-05-09T13:38:51.674Z,14.60
2023-05-09T13:41:23.121Z,14.60
2023-05-09T13:43:49.929Z,14.70
2023-05-09T13:46:16.765Z,14.60
2023-05-09T13:48:44.483Z,14.60
2023-05-09T13:51:11.436Z,14.50
2023-05-09T13:53:39.363Z,14.50
2023-05-09T13:56:12.034Z,14.50
2023-05-09T13:58:38.805Z,14.60
2023-05-09T14:01:05.861Z,14.60
2023-05-09T14:03:32.887Z,14.50
2023-05-09T14:05:59.864Z,14.50
2023-05-09T14:08:26.798Z,14.60
2023-05-09T14:10:53.616Z,14.60
2023-05-09T14:13:20.448Z,14.60
2023-05-09T14:15:47.245Z,14.50
2023-05-09T14:18:17.750Z,14.50
2023-05-09T14:20:46.038Z,14.50
2023-05-09T14:23:13.513Z,14.50
2023-05-09T14:25:40.267Z,14.50
2023-05-09T14:28:09.359Z,14.50
2023-05-09T14:30:36.606Z,14.50
2023-05-09T14:33:03.656Z,14.50
2023-05-09T14:35:32.836Z,14.50
2023-05-09T14:38:00.367Z,14.50
2023-05-09T14:40:36.440Z,14.50
2023-05-09T14:43:03.265Z,14.60
2023-05-09T14:45:31.511Z,14.60
2023-05-09T14:48:03.352Z,14.60
2023-05-09T14:50:30.380Z,14.70
2023-05-09T14:52:57.486Z,14.70
2023-05-09T14:55:24.350Z,14.80
2023-05-09T14:57:51.233Z,14.70
2023-05-09T15:00:21.719Z,14.70
2023-05-09T15:02:49.821Z,14.60
2023-05-09T15:05:17.039Z,14.70
2023-05-09T15:07:43.799Z,14.70
2023-05-09T15:10:10.848Z,14.70
2023-05-09T15:12:37.682Z,14.70
2023-05-09T15:15:14.667Z,14.70
2023-05-09T15:17:41.645Z,14.70
2023-05-09T15:20:08.759Z,14.70
2023-05-09T15:22:35.594Z,14.70
2023-05-09T15:25:05.382Z,14.70
2023-05-09T15:27:32.995Z,14.70
2023-05-09T15:30:00.402Z,14.70
2023-05-09T15:32:27.252Z,14.70
2023-05-09T15:34:54.055Z,14.80
2023-05-09T15:37:20.828Z,14.80
2023-05-09T15:39:47.961Z,14.80
2023-05-09T15:42:15.752Z,14.80
2023-05-09T15:44:42.968Z,14.80
2023-05-09T15:47:10.366Z,14.90
2023-05-09T15:49:37.322Z,14.90
2023-05-09T15:52:05.310Z,14.90
2023-05-09T15:54:33.353Z,15.00
2023-05-09T15:57:00.717Z,15.00
2023-05-09T15:59:27.687Z,15.00
2023-05-09T16:01:55.523Z,15.00
2023-05-09T16:04:22.350Z,15.00
2023-05-09T16:06:49.086Z,15.00
2023-05-09T16:09:15.869Z,15.00
2023-05-09T16:11:42.920Z,15.00
2023-05-09T16:14:11.621Z,15.00
2023-05-09T16:16:39.615Z,15.10
2023-05-09T16:19:06.803Z,15.10
2023-05-09T16:21:33.565Z,15.10
2023-05-09T16:24:03.014Z,15.10
2023-05-09T16:26:29.832Z,15.10
2023-05-09T16:28:56.808Z,15.10
2023-05-09T16:31:26.667Z,15.10
2023-05-09T16:33:54.187Z,15.10
2023-05-09T16:36:22.011Z,15.10
2023-05-09T16:38:48.955Z,15.10
2023-05-09T16:41:16.019Z,15.10
2023-05-09T16:43:42.838Z,15.10
2023-05-09T16:46:09.772Z,15.10
2023-05-09T16:48:36.638Z,15.10
2023-05-09T16:51:03.473Z,15.10
2023-05-09T16:53:30.329Z,15.10
2023-05-09T16:55:57.414Z,15.20
2023-05-09T16:58:25.243Z,15.20
2023-05-09T17:00:52.143Z,15.20
2023-05-09T17:03:19.092Z,15.20
2023-05-09T17:05:45.886Z,15.30
2023-05-09T17:08:12.711Z,15.30
2023-05-09T17:10:41.452Z,15.30
2023-05-09T17:13:09.094Z,15.30
2023-05-09T17:15:36.995Z,15.30
2023-05-09T17:18:05.068Z,15.30
2023-05-09T17:20:31.974Z,15.30
2023-05-09T17:22:58.741Z,15.30
2023-05-09T17:25:25.584Z,15.40
2023-05-09T17:27:52.492Z,15.30
2023-05-09T17:30:22.088Z,15.40
2023-05-09T17:32:50.366Z,15.30
2023-05-09T17:35:19.463Z,15.30
2023-05-09T17:37:46.437Z,15.30
2023-05-09T17:40:13.884Z,15.30
2023-05-09T17:42:41.112Z,15.30
2023-05-09T17:45:09.849Z,15.30
2023-05-09T17:47:37.563Z,15.30
2023-05-09T17:50:05.377Z,15.30
2023-05-09T17:52:32.219Z,15.30
2023-05-09T17:54:59.334Z,15.30
2023-05-09T17:57:26.263Z,15.30
2023-05-09T17:59:53.034Z,15.30
2023-05-09T18:02:23.977Z,15.30
2023-05-09T18:04:51.536Z,15.30
2023-05-09T18:07:18.620Z,15.30
2023-05-09T18:09:45.758Z,15.30
2023-05-09T18:12:12.555Z,15.30
2023-05-09T18:14:39.390Z,15.30
2023-05-09T18:17:06.213Z,15.30
2023-05-09T18:19:33.901Z,15.30
2023-05-09T18:22:01.510Z,15.30
2023-05-09T18:24:28.601Z,15.30
2023-05-09T18:26:55.348Z,15.30
2023-05-09T18:29:23.199Z,15.30
2023-05-09T18:31:50.538Z,15.30
2023-05-09T18:34:17.471Z,15.30
2023-05-09T18:36:44.232Z,15.30
2023-05-09T18:39:11.908Z,15.30
2023-05-09T18:41:38.900Z,15.30
2023-05-09T18:44:05.792Z,15.30
2023-05-09T18:46:33.706Z,15.20
2023-05-09T18:49:01.029Z,15.20
2023-05-09T18:51:27.855Z,15.20
2023-05-09T18:53:54.626Z,15.20
2023-05-09T18:56:22.283Z,15.20
2023-05-09T18:58:52.426Z,15.20
2023-05-09T19:01:19.303Z,15.20
2023-05-09T19:03:47.524Z,15.20
2023-05-09T19:06:14.772Z,15.10
2023-05-09T19:08:42.538Z,15.10
2023-05-09T19:11:09.945Z,15.10
2023-05-09T19:13:38.440Z,15.10
2023-05-09T19:16:07.085Z,15.10
2023-05-09T19:18:34.523Z,15.10
2023-05-09T19:21:01.614Z,15.10
2023-05-09T19:23:28.439Z,15.10
2023-05-09T19:25:55.572Z,15.10
2023-05-09T19:28:25.303Z,15.10
2023-05-09T19:30:52.265Z,15.10
2023-05-09T19:33:19.612Z,15.10
2023-05-09T19:35:46.653Z,15.10
2023-05-09T19:38:13.567Z,15.10
2023-05-09T19:40:40.993Z,15.00
2023-05-09T19:43:07.827Z,15.00
2023-05-09T19:45:34.593Z,15.00
2023-05-09T19:48:01.386Z,15.00
2023-05-09T19:50:28.227Z,15.00
2023-05-09T19:52:55.055Z,15.00
2023-05-09T19:55:22.003Z,14.90
2023-05-09T19:57:48.832Z,14.90
2023-05-09T20:00:16.565Z,14.80
2023-05-09T20:02:43.777Z,14.90
2023-05-09T20:05:10.679Z,14.80
2023-05-09T20:07:37.498Z,14.80
2023-05-09T20:10:04.697Z,14.70
2023-05-09T20:12:31.449Z,14.80
2023-05-09T20:14:58.190Z,14.70
2023-05-09T20:17:25.043Z,14.70
2023-05-09T20:19:51.896Z,14.70
2023-05-09T20:22:18.643Z,14.70
2023-05-09T20:24:45.763Z,14.70
2023-05-09T20:27:12.743Z,14.70
2023-05-09T20:29:39.552Z,14.60
2023-05-09T20:32:06.558Z,14.60
2023-05-09T20:34:33.512Z,14.60
2023-05-09T20:37:00.257Z,14.60
2023-05-09T20:39:27.128Z,14.60
2023-05-09T20:41:55.790Z,14.60
2023-05-09T20:44:22.552Z,14.60
2023-05-09T20:46:49.361Z,14.50
2023-05-09T20:49:16.208Z,14.50
2023-05-09T20:51:42.933Z,14.40
2023-05-09T20:54:09.806Z,14.40
2023-05-09T20:56:36.748Z,14.40
2023-05-09T20:59:04.182Z,14.50
2023-05-09T21:01:32.489Z,14.40
2023-05-09T21:03:59.457Z,14.40
2023-05-09T21:06:26.397Z,14.40
2023-05-09T21:08:53.155Z,14.40
2023-05-09T21:11:19.929Z,14.40
2023-05-09T21:13:46.711Z,14.40
2023-05-09T21:16:13.485Z,14.40
2023-05-09T21:18:40.224Z,14.40
2023-05-09T21:21:08.252Z,14.30
2023-05-09T21:23:35.305Z,14.30
2023-05-09T21:26:02.531Z,14.30
2023-05-09T21:28:29.532Z,14.20
2023-05-09T21:30:56.382Z,14.20
2023-05-09T21:33:23.177Z,14.20
2023-05-09T21:35:49.939Z,14.20
2023-05-09T21:38:16.743Z,14.20
2023-05-09T21:40:43.558Z,14.10
2023-05-09T21:43:10.314Z,14.10
2023-05-09T21:45:37.070Z,14.10
2023-05-09T21:48:04.134Z,14.10
2023-05-09T21:50:30.913Z,14.10
2023-05-09T21:52:57.921Z,14.00
2023-05-09T21:55:24.760Z,14.00
2023-05-09T21:57:51.870Z,14.00
2023-05-09T22:00:19.325Z,14.00
2023-05-09T22:02:46.970Z,13.90
2023-05-09T22:05:13.812Z,13.90
2023-05-09T22:07:40.590Z,13.90
2023-05-09T22:10:07.954Z,13.90
2023-05-09T22:12:34.729Z,13.80
2023-05-09T22:15:01.539Z,13.90
2023-05-09T22:17:28.403Z,13.80
2023-05-09T22:19:55.170Z,13.80
2023-05-09T22:22:22.220Z,13.80
2023-05-09T22:24:49.784Z,13.80
2023-05-09T22:27:16.631Z,13.80
2023-05-09T22:29:43.395Z,13.80
2023-05-09T22:32:10.217Z,13.80
2023-05-09T22:34:37.228Z,13.80
2023-05-09T22:37:04.039Z,13.80
2023-05-09T22:39:31.023Z,13.70
2023-05-09T22:41:57.800Z,13.70
2023-05-09T22:44:24.659Z,13.70
2023-05-09T22:46:51.378Z,13.70
2023-05-09T22:49:18.130Z,13.70
2023-05-09T22:51:44.876Z,13.70
2023-05-09T22:54:11.679Z,13.70
2023-05-09T22:56:38.439Z,13.70
2023-05-09T22:59:05.197Z,13.60
2023-05-09T23:01:32.380Z,13.70
2023-05-09T23:03:59.192Z,13.60
2023-05-09T23:06:26.033Z,13.60
2023-05-09T23:08:52.784Z,13.60
2023-05-09T23:11:20.973Z,13.60
2023-05-09T23:13:47.908Z,13.50
